createdAt,value
2018-12-06T00:00:43.509Z,1016.26
2018-12-06T00:01:43.504Z,1016.21
2018-12-06T00:02:43.480Z,1016.23
2018-12-06T00:03:43.483Z,1016.24
2018-12-06T00:04:43.475Z,1016.24
2018-12-06T00:05:43.454Z,1016.20
2018-12-06T00:06:43.452Z,1016.20
2018-12-06T00:07:43.446Z,1016.11
2018-12-06T00:08:43.435Z,1016.16
2018-12-06T00:09:43.498Z,1016.13
2018-12-06T00:10:43.414Z,1016.10
2018-12-06T00:11:43.417Z,1016.12
2018-12-06T00:12:43.406Z,1016.14
2018-12-06T00:13:43.381Z,1016.13
2018-12-06T00:14:43.368Z,1016.08
2018-12-06T00:15:43.371Z,1016.17
2018-12-06T00:16:43.370Z,1016.08
2018-12-06T00:17:43.355Z,1016.11
2018-12-06T00:18:43.353Z,1016.11
2018-12-06T00:19:43.317Z,1016.10
2018-12-06T00:20:43.302Z,1016.09
2018-12-06T00:21:43.295Z,1016.08
2018-12-06T00:22:43.271Z,1016.05
2018-12-06T00:23:43.259Z,1016.04
2018-12-06T00:24:43.267Z,1016.03
2018-12-06T00:25:43.241Z,1016.00
2018-12-06T00:26:43.235Z,1016.02
2018-12-06T00:27:43.229Z,1015.97
2018-12-06T00:28:43.210Z,1015.99
2018-12-06T00:29:43.199Z,1015.94
2018-12-06T00:30:43.199Z,1015.92
2018-12-06T00:31:43.168Z,1015.95
2018-12-06T00:32:43.171Z,1015.96
2018-12-06T00:33:43.159Z,1015.93
2018-12-06T00:34:43.165Z,1015.93
2018-12-06T00:35:43.137Z,1015.99
2018-12-06T00:36:43.150Z,1016.02
2018-12-06T00:37:43.121Z,1016.02
2018-12-06T00:38:43.110Z,1016.00
2018-12-06T00:39:43.105Z,1016.02
2018-12-06T00:40:43.100Z,1016.05
2018-12-06T00:41:43.082Z,1015.99
2018-12-06T00:42:43.079Z,1016.04
2018-12-06T00:43:43.054Z,1016.03
2018-12-06T00:44:43.052Z,1016.02
2018-12-06T00:45:43.026Z,1015.97
2018-12-06T00:46:43.041Z,1016.03
2018-12-06T00:47:43.008Z,1016.00
2018-12-06T00:48:42.999Z,1015.95
2018-12-06T00:49:42.985Z,1015.98
2018-12-06T00:50:42.981Z,1015.97
2018-12-06T00:51:42.976Z,1015.93
2018-12-06T00:52:43.003Z,1015.96
2018-12-06T00:53:43.503Z,1015.89
2018-12-06T00:54:42.939Z,1015.93
2018-12-06T00:55:42.926Z,1015.90
2018-12-06T00:56:42.934Z,1015.91
2018-12-06T00:57:42.910Z,1015.87
2018-12-06T00:58:42.890Z,1015.85
2018-12-06T00:59:42.891Z,1015.88
2018-12-06T01:00:42.866Z,1015.83
2018-12-06T01:01:42.874Z,1015.86
2018-12-06T01:02:42.845Z,1015.85
2018-12-06T01:03:42.847Z,1015.85
2018-12-06T01:04:42.830Z,1015.86
2018-12-06T01:05:42.838Z,1015.83
2018-12-06T01:06:42.809Z,1015.87
2018-12-06T01:07:42.808Z,1015.88
2018-12-06T01:08:42.779Z,1015.87
2018-12-06T01:09:42.819Z,1015.82
2018-12-06T01:10:42.807Z,1015.82
2018-12-06T01:11:42.766Z,1015.80
2018-12-06T01:12:42.753Z,1015.83
2018-12-06T01:13:42.735Z,1015.80
2018-12-06T01:14:42.742Z,1015.83
2018-12-06T01:15:42.741Z,1015.77
2018-12-06T01:16:42.796Z,1015.83
2018-12-06T01:17:42.696Z,1015.80
2018-12-06T01:18:42.685Z,1015.79
2018-12-06T01:19:42.669Z,1015.77
2018-12-06T01:20:42.666Z,1015.71
2018-12-06T01:21:42.662Z,1015.69
2018-12-06T01:22:42.677Z,1015.70
2018-12-06T01:23:42.642Z,1015.71
2018-12-06T01:24:42.622Z,1015.70
2018-12-06T01:25:42.628Z,1015.71
2018-12-06T01:26:42.611Z,1015.70
2018-12-06T01:27:42.648Z,1015.62
2018-12-06T01:28:42.634Z,1015.63
2018-12-06T01:29:42.561Z,1015.59
2018-12-06T01:30:42.597Z,1015.60
2018-12-06T01:31:42.560Z,1015.59
2018-12-06T01:32:42.531Z,1015.60
2018-12-06T01:33:42.544Z,1015.53
2018-12-06T01:34:42.549Z,1015.53
2018-12-06T01:35:42.512Z,1015.55
2018-12-06T01:36:42.491Z,1015.47
2018-12-06T01:37:42.487Z,1015.46
2018-12-06T01:38:42.545Z,1015.44
2018-12-06T01:39:42.481Z,1015.41
2018-12-06T01:40:42.490Z,1015.42
2018-12-06T01:41:42.436Z,1015.40
2018-12-06T01:42:42.435Z,1015.41
2018-12-06T01:43:42.438Z,1015.35
2018-12-06T01:44:42.449Z,1015.35
2018-12-06T01:45:42.423Z,1015.34
2018-12-06T01:46:42.430Z,1015.28
2018-12-06T01:47:42.366Z,1015.28
2018-12-06T01:48:42.366Z,1015.32
2018-12-06T01:49:42.356Z,1015.29
2018-12-06T01:50:42.375Z,1015.31
2018-12-06T01:51:42.342Z,1015.33
2018-12-06T01:52:42.317Z,1015.30
2018-12-06T01:53:42.319Z,1015.30
2018-12-06T01:54:42.302Z,1015.29
2018-12-06T01:55:42.323Z,1015.36
2018-12-06T01:56:42.271Z,1015.31
2018-12-06T01:57:42.302Z,1015.30
2018-12-06T01:58:42.252Z,1015.32
2018-12-06T01:59:42.234Z,1015.25
2018-12-06T02:00:42.243Z,1015.26
2018-12-06T02:01:42.237Z,1015.18
2018-12-06T02:02:42.211Z,1015.24
2018-12-06T02:03:42.221Z,1015.27
2018-12-06T02:04:42.199Z,1015.28
2018-12-06T02:05:42.961Z,1015.22
2018-12-06T02:06:42.181Z,1015.22
2018-12-06T02:07:42.172Z,1015.20
2018-12-06T02:08:42.149Z,1015.22
2018-12-06T02:09:42.184Z,1015.18
2018-12-06T02:10:42.147Z,1015.25
2018-12-06T02:11:42.131Z,1015.28
2018-12-06T02:12:42.118Z,1015.28
2018-12-06T02:13:42.107Z,1015.30
2018-12-06T02:14:42.109Z,1015.29
2018-12-06T02:15:42.088Z,1015.26
2018-12-06T02:16:43.819Z,1015.27
2018-12-06T02:17:42.056Z,1015.21
2018-12-06T02:18:42.061Z,1015.25
2018-12-06T02:19:42.042Z,1015.20
2018-12-06T02:20:42.023Z,1015.17
2018-12-06T02:21:42.031Z,1015.17
2018-12-06T02:22:42.000Z,1015.19
2018-12-06T02:23:41.995Z,1015.21
2018-12-06T02:24:42.041Z,1015.17
2018-12-06T02:25:41.991Z,1015.18
2018-12-06T02:26:41.967Z,1015.17
2018-12-06T02:27:41.976Z,1015.18
2018-12-06T02:28:41.944Z,1015.15
2018-12-06T02:29:41.936Z,1015.19
2018-12-06T02:30:41.947Z,1015.12
2018-12-06T02:31:41.917Z,1015.09
2018-12-06T02:32:41.974Z,1015.09
2018-12-06T02:33:41.897Z,1015.01
2018-12-06T02:34:41.985Z,1015.00
2018-12-06T02:35:41.935Z,1014.99
2018-12-06T02:36:41.851Z,1014.98
2018-12-06T02:37:41.856Z,1014.98
2018-12-06T02:38:42.466Z,1014.97
2018-12-06T02:39:41.832Z,1014.94
2018-12-06T02:40:41.834Z,1014.88
2018-12-06T02:41:41.816Z,1014.89
2018-12-06T02:42:41.815Z,1014.79
2018-12-06T02:43:41.823Z,1014.78
2018-12-06T02:44:41.783Z,1014.76
2018-12-06T02:45:41.766Z,1014.75
2018-12-06T02:46:41.746Z,1014.75
2018-12-06T02:47:41.744Z,1014.72
2018-12-06T02:48:41.719Z,1014.66
2018-12-06T02:49:41.729Z,1014.65
2018-12-06T02:50:41.752Z,1014.64
2018-12-06T02:51:41.703Z,1014.65
2018-12-06T02:52:41.681Z,1014.56
2018-12-06T02:53:41.671Z,1014.56
2018-12-06T02:54:41.659Z,1014.59
2018-12-06T02:55:41.654Z,1014.49
2018-12-06T02:56:41.629Z,1014.47
2018-12-06T02:57:41.635Z,1014.43
2018-12-06T02:58:41.617Z,1014.42
2018-12-06T02:59:41.612Z,1014.36
2018-12-06T03:00:41.591Z,1014.29
2018-12-06T03:01:41.600Z,1014.31
2018-12-06T03:02:41.599Z,1014.26
2018-12-06T03:03:41.561Z,1014.21
2018-12-06T03:04:41.553Z,1014.20
2018-12-06T03:05:41.548Z,1014.17
2018-12-06T03:06:41.528Z,1014.14
2018-12-06T03:07:41.556Z,1014.11
2018-12-06T03:08:41.511Z,1014.10
2018-12-06T03:09:41.507Z,1014.04
2018-12-06T03:10:41.488Z,1014.05
2018-12-06T03:11:41.523Z,1014.01
2018-12-06T03:12:41.466Z,1014.01
2018-12-06T03:13:41.487Z,1014.00
2018-12-06T03:14:41.443Z,1013.98
2018-12-06T03:15:41.440Z,1013.93
2018-12-06T03:16:41.426Z,1013.94
2018-12-06T03:17:41.429Z,1013.89
2018-12-06T03:18:41.394Z,1013.89
2018-12-06T03:19:41.413Z,1013.92
2018-12-06T03:20:41.374Z,1013.89
2018-12-06T03:21:41.374Z,1013.86
2018-12-06T03:22:41.366Z,1013.83
2018-12-06T03:23:41.361Z,1013.79
2018-12-06T03:24:41.342Z,1013.77
2018-12-06T03:25:41.368Z,1013.76
2018-12-06T03:26:41.314Z,1013.77
2018-12-06T03:27:41.309Z,1013.75
2018-12-06T03:28:41.297Z,1013.77
2018-12-06T03:29:41.300Z,1013.74
2018-12-06T03:30:41.287Z,1013.75
2018-12-06T03:31:41.265Z,1013.69
2018-12-06T03:32:41.249Z,1013.72
2018-12-06T03:33:41.268Z,1013.68
2018-12-06T03:34:41.248Z,1013.65
2018-12-06T03:35:41.228Z,1013.69
2018-12-06T03:36:41.222Z,1013.63
2018-12-06T03:37:41.279Z,1013.58
2018-12-06T03:38:41.189Z,1013.61
2018-12-06T03:39:41.176Z,1013.59
2018-12-06T03:40:41.277Z,1013.48
2018-12-06T03:41:41.153Z,1013.54
2018-12-06T03:42:41.169Z,1013.54
2018-12-06T03:43:41.129Z,1013.47
2018-12-06T03:44:41.127Z,1013.52
2018-12-06T03:45:41.135Z,1013.46
2018-12-06T03:46:41.118Z,1013.42
2018-12-06T03:47:41.096Z,1013.37
2018-12-06T03:48:41.100Z,1013.35
2018-12-06T03:49:41.068Z,1013.27
2018-12-06T03:50:41.064Z,1013.25
2018-12-06T03:51:41.050Z,1013.24
2018-12-06T03:52:41.060Z,1013.25
2018-12-06T03:53:41.055Z,1013.20
2018-12-06T03:54:41.038Z,1013.14
2018-12-06T03:55:41.008Z,1013.14
2018-12-06T03:56:41.009Z,1013.14
2018-12-06T03:57:40.994Z,1013.10
2018-12-06T03:58:40.981Z,1013.07
2018-12-06T03:59:40.975Z,1013.04
2018-12-06T04:00:40.973Z,1013.01
2018-12-06T04:01:40.954Z,1013.00
2018-12-06T04:02:40.943Z,1013.02
2018-12-06T04:03:40.950Z,1012.99
2018-12-06T04:04:40.909Z,1012.97
2018-12-06T04:05:40.911Z,1012.97
2018-12-06T04:06:40.894Z,1012.95
2018-12-06T04:07:40.884Z,1012.94
2018-12-06T04:08:40.888Z,1012.92
2018-12-06T04:09:40.875Z,1012.91
2018-12-06T04:10:40.883Z,1012.83
2018-12-06T04:11:40.858Z,1012.81
2018-12-06T04:12:40.825Z,1012.79
2018-12-06T04:13:40.836Z,1012.83
2018-12-06T04:14:40.820Z,1012.80
2018-12-06T04:15:40.801Z,1012.79
2018-12-06T04:16:40.788Z,1012.75
2018-12-06T04:17:40.800Z,1012.75
2018-12-06T04:18:40.768Z,1012.74
2018-12-06T04:19:40.760Z,1012.70
2018-12-06T04:20:40.765Z,1012.72
2018-12-06T04:21:40.741Z,1012.68
2018-12-06T04:22:40.726Z,1012.66
2018-12-06T04:23:40.730Z,1012.67
2018-12-06T04:24:40.701Z,1012.69
2018-12-06T04:25:40.697Z,1012.68
2018-12-06T04:26:40.702Z,1012.65
2018-12-06T04:27:40.667Z,1012.61
2018-12-06T04:28:40.663Z,1012.62
2018-12-06T04:29:40.673Z,1012.56
2018-12-06T04:30:40.627Z,1012.59
2018-12-06T04:31:40.641Z,1012.57
2018-12-06T04:32:40.645Z,1012.52
2018-12-06T04:33:40.598Z,1012.51
2018-12-06T04:34:40.625Z,1012.51
2018-12-06T04:35:40.647Z,1012.46
2018-12-06T04:36:40.575Z,1012.45
2018-12-06T04:37:41.506Z,1012.45
2018-12-06T04:38:40.587Z,1012.47
2018-12-06T04:39:40.532Z,1012.49
2018-12-06T04:40:40.588Z,1012.46
2018-12-06T04:41:40.533Z,1012.48
2018-12-06T04:42:40.507Z,1012.45
2018-12-06T04:43:40.512Z,1012.43
2018-12-06T04:44:40.521Z,1012.42
2018-12-06T04:45:40.468Z,1012.41
2018-12-06T04:46:40.537Z,1012.37
2018-12-06T04:47:40.460Z,1012.34
2018-12-06T04:48:40.515Z,1012.39
2018-12-06T04:49:40.452Z,1012.34
2018-12-06T04:50:40.446Z,1012.30
2018-12-06T04:51:40.407Z,1012.28
2018-12-06T04:52:40.426Z,1012.28
2018-12-06T04:53:40.403Z,1012.27
2018-12-06T04:54:40.385Z,1012.30
2018-12-06T04:55:40.393Z,1012.27
2018-12-06T04:56:40.416Z,1012.27
2018-12-06T04:57:40.348Z,1012.27
2018-12-06T04:58:40.357Z,1012.29
2018-12-06T04:59:40.355Z,1012.32
2018-12-06T05:00:40.361Z,1012.29
2018-12-06T05:01:40.324Z,1012.35
2018-12-06T05:02:40.313Z,1012.29
2018-12-06T05:03:40.282Z,1012.31
2018-12-06T05:04:40.285Z,1012.32
2018-12-06T05:05:40.267Z,1012.32
2018-12-06T05:06:40.271Z,1012.30
2018-12-06T05:07:40.272Z,1012.27
2018-12-06T05:08:40.254Z,1012.29
2018-12-06T05:09:40.230Z,1012.26
2018-12-06T05:10:40.211Z,1012.25
2018-12-06T05:11:40.203Z,1012.20
2018-12-06T05:12:40.205Z,1012.25
2018-12-06T05:13:40.181Z,1012.26
2018-12-06T05:14:40.193Z,1012.24
2018-12-06T05:15:40.177Z,1012.31
2018-12-06T05:16:40.155Z,1012.33
2018-12-06T05:17:40.141Z,1012.29
2018-12-06T05:18:40.127Z,1012.32
2018-12-06T05:19:40.126Z,1012.32
2018-12-06T05:20:40.115Z,1012.27
2018-12-06T05:21:40.112Z,1012.29
2018-12-06T05:22:40.099Z,1012.31
2018-12-06T05:23:40.076Z,1012.25
2018-12-06T05:24:40.082Z,1012.34
2018-12-06T05:25:40.066Z,1012.38
2018-12-06T05:26:40.046Z,1012.34
2018-12-06T05:27:40.028Z,1012.31
2018-12-06T05:28:40.033Z,1012.30
2018-12-06T05:29:40.018Z,1012.30
2018-12-06T05:30:40.019Z,1012.30
2018-12-06T05:31:40.006Z,1012.35
2018-12-06T05:32:39.990Z,1012.34
2018-12-06T05:33:39.971Z,1012.34
2018-12-06T05:34:39.967Z,1012.32
2018-12-06T05:35:39.956Z,1012.31
2018-12-06T05:36:39.932Z,1012.29
2018-12-06T05:37:39.938Z,1012.34
2018-12-06T05:38:41.759Z,1012.33
2018-12-06T05:39:39.919Z,1012.27
2018-12-06T05:40:39.911Z,1012.31
2018-12-06T05:41:39.893Z,1012.32
2018-12-06T05:42:39.871Z,1012.27
2018-12-06T05:43:39.883Z,1012.30
2018-12-06T05:44:39.883Z,1012.30
2018-12-06T05:45:39.836Z,1012.30
2018-12-06T05:46:39.837Z,1012.34
2018-12-06T05:47:39.827Z,1012.30
2018-12-06T05:48:39.820Z,1012.34
2018-12-06T05:49:39.818Z,1012.31
2018-12-06T05:50:39.801Z,1012.27
2018-12-06T05:51:39.771Z,1012.31
2018-12-06T05:52:39.767Z,1012.27
2018-12-06T05:53:39.753Z,1012.29
2018-12-06T05:54:39.747Z,1012.30
2018-12-06T05:55:39.739Z,1012.30
2018-12-06T05:56:39.727Z,1012.29
2018-12-06T05:57:39.703Z,1012.31
2018-12-06T05:58:39.704Z,1012.27
2018-12-06T05:59:39.693Z,1012.24
2018-12-06T06:00:39.674Z,1012.26
2018-12-06T06:01:39.683Z,1012.28
2018-12-06T06:02:39.664Z,1012.20
2018-12-06T06:03:39.641Z,1012.26
2018-12-06T06:04:39.650Z,1012.25
2018-12-06T06:05:39.641Z,1012.27
2018-12-06T06:06:39.632Z,1012.21
2018-12-06T06:07:39.637Z,1012.27
2018-12-06T06:08:39.589Z,1012.24
2018-12-06T06:09:39.574Z,1012.30
2018-12-06T06:10:39.582Z,1012.30
2018-12-06T06:11:39.582Z,1012.34
2018-12-06T06:12:39.550Z,1012.28
2018-12-06T06:13:39.575Z,1012.29
2018-12-06T06:14:39.523Z,1012.27
2018-12-06T06:15:39.523Z,1012.27
2018-12-06T06:16:39.523Z,1012.30
2018-12-06T06:17:39.500Z,1012.32
2018-12-06T06:18:39.506Z,1012.35
2018-12-06T06:19:39.490Z,1012.34
2018-12-06T06:20:39.476Z,1012.35
2018-12-06T06:21:39.462Z,1012.34
2018-12-06T06:22:39.465Z,1012.30
2018-12-06T06:23:39.442Z,1012.33
2018-12-06T06:24:39.421Z,1012.29
2018-12-06T06:25:39.418Z,1012.26
2018-12-06T06:26:39.397Z,1012.23
2018-12-06T06:27:39.402Z,1012.21
2018-12-06T06:28:39.380Z,1012.21
2018-12-06T06:29:39.377Z,1012.25
2018-12-06T06:30:39.361Z,1012.23
2018-12-06T06:31:39.380Z,1012.23
2018-12-06T06:32:39.337Z,1012.20
2018-12-06T06:33:39.325Z,1012.20
2018-12-06T06:34:39.324Z,1012.20
2018-12-06T06:35:39.303Z,1012.16
2018-12-06T06:36:39.299Z,1012.18
2018-12-06T06:37:39.309Z,1012.20
2018-12-06T06:38:39.278Z,1012.21
2018-12-06T06:39:39.266Z,1012.23
2018-12-06T06:40:39.260Z,1012.26
2018-12-06T06:41:39.234Z,1012.23
2018-12-06T06:42:39.298Z,1012.22
2018-12-06T06:43:39.280Z,1012.23
2018-12-06T06:44:39.258Z,1012.22
2018-12-06T06:45:39.316Z,1012.23
2018-12-06T06:46:39.220Z,1012.21
2018-12-06T06:47:39.219Z,1012.21
2018-12-06T06:48:39.188Z,1012.21
2018-12-06T06:49:39.172Z,1012.19
2018-12-06T06:50:39.152Z,1012.16
2018-12-06T06:51:39.143Z,1012.17
2018-12-06T06:52:39.136Z,1012.09
2018-12-06T06:53:39.146Z,1012.08
2018-12-06T06:54:39.106Z,1012.10
2018-12-06T06:55:39.107Z,1012.11
2018-12-06T06:56:39.084Z,1012.13
2018-12-06T06:57:39.092Z,1012.12
2018-12-06T06:58:39.072Z,1012.15
2018-12-06T06:59:39.043Z,1012.09
2018-12-06T07:00:39.060Z,1012.11
2018-12-06T07:01:39.048Z,1012.16
2018-12-06T07:02:39.023Z,1012.15
2018-12-06T07:03:39.029Z,1012.13
2018-12-06T07:04:39.028Z,1012.16
2018-12-06T07:05:39.023Z,1012.11
2018-12-06T07:06:39.124Z,1012.09
2018-12-06T07:07:38.968Z,1012.07
2018-12-06T07:08:38.962Z,1012.10
2018-12-06T07:09:38.947Z,1012.09
2018-12-06T07:10:38.925Z,1012.05
2018-12-06T07:11:38.962Z,1012.05
2018-12-06T07:12:38.967Z,1011.98
2018-12-06T07:13:39.048Z,1011.99
2018-12-06T07:14:38.901Z,1012.00
2018-12-06T07:15:38.880Z,1011.95
2018-12-06T07:16:38.913Z,1011.93
2018-12-06T07:17:38.924Z,1011.96
2018-12-06T07:18:38.858Z,1011.95
2018-12-06T07:19:38.837Z,1011.98
2018-12-06T07:20:38.836Z,1012.03
2018-12-06T07:21:38.857Z,1012.02
2018-12-06T07:22:38.815Z,1012.04
2018-12-06T07:23:38.805Z,1012.00
2018-12-06T07:24:38.776Z,1012.05
2018-12-06T07:25:46.006Z,1011.96
2018-12-06T07:26:39.817Z,1011.91
2018-12-06T07:27:38.757Z,1011.89
2018-12-06T07:28:38.763Z,1011.91
2018-12-06T07:29:38.725Z,1011.88
2018-12-06T07:30:38.720Z,1011.80
2018-12-06T07:31:38.713Z,1011.74
2018-12-06T07:32:38.705Z,1011.79
2018-12-06T07:33:38.710Z,1011.79
2018-12-06T07:34:38.700Z,1011.75
2018-12-06T07:35:38.687Z,1011.76
2018-12-06T07:36:39.570Z,1011.79
2018-12-06T07:37:38.649Z,1011.72
2018-12-06T07:38:38.636Z,1011.71
2018-12-06T07:39:38.638Z,1011.70
2018-12-06T07:40:38.616Z,1011.65
2018-12-06T07:41:38.622Z,1011.61
2018-12-06T07:42:38.638Z,1011.61
2018-12-06T07:43:38.598Z,1011.60
2018-12-06T07:44:38.576Z,1011.57
2018-12-06T07:45:38.554Z,1011.63
2018-12-06T07:46:38.556Z,1011.53
2018-12-06T07:47:38.530Z,1011.49
2018-12-06T07:48:39.512Z,1011.42
2018-12-06T07:49:38.511Z,1011.38
2018-12-06T07:50:38.512Z,1011.35
2018-12-06T07:51:38.538Z,1011.34
2018-12-06T07:52:38.573Z,1011.31
2018-12-06T07:53:38.480Z,1011.26
2018-12-06T07:54:38.470Z,1011.25
2018-12-06T07:55:38.489Z,1011.20
2018-12-06T07:56:38.448Z,1011.21
2018-12-06T07:57:38.429Z,1011.20
2018-12-06T07:58:38.427Z,1011.11
2018-12-06T07:59:38.485Z,1011.06
2018-12-06T08:00:38.413Z,1011.04
2018-12-06T08:01:38.406Z,1010.99
2018-12-06T08:02:38.389Z,1010.97
2018-12-06T08:03:38.396Z,1010.91
2018-12-06T08:04:38.406Z,1010.92
2018-12-06T08:05:38.342Z,1010.93
2018-12-06T08:06:38.334Z,1010.93
2018-12-06T08:07:38.328Z,1010.97
2018-12-06T08:08:38.331Z,1010.99
2018-12-06T08:09:38.397Z,1011.07
2018-12-06T08:10:38.303Z,1011.16
2018-12-06T08:11:38.744Z,1011.21
2018-12-06T08:12:38.273Z,1011.28
2018-12-06T08:13:38.266Z,1011.35
2018-12-06T08:14:38.272Z,1011.42
2018-12-06T08:15:38.241Z,1011.36
2018-12-06T08:16:38.240Z,1011.33
2018-12-06T08:17:38.234Z,1011.35
2018-12-06T08:18:38.214Z,1011.33
2018-12-06T08:19:38.241Z,1011.32
2018-12-06T08:20:38.247Z,1011.29
2018-12-06T08:21:38.189Z,1011.20
2018-12-06T08:22:38.206Z,1011.20
2018-12-06T08:23:38.181Z,1011.14
2018-12-06T08:24:38.157Z,1011.11
2018-12-06T08:25:38.134Z,1011.07
2018-12-06T08:26:38.156Z,1011.10
2018-12-06T08:27:38.529Z,1011.10
2018-12-06T08:28:38.183Z,1011.14
2018-12-06T08:29:38.423Z,1011.17
2018-12-06T08:30:38.095Z,1011.32
2018-12-06T08:31:38.075Z,1011.38
2018-12-06T08:32:38.068Z,1011.45
2018-12-06T08:33:38.063Z,1011.52
2018-12-06T08:34:38.032Z,1011.57
2018-12-06T08:35:38.039Z,1011.54
2018-12-06T08:36:38.021Z,1011.54
2018-12-06T08:37:38.035Z,1011.52
2018-12-06T08:38:38.194Z,1011.48
2018-12-06T08:39:38.126Z,1011.48
2018-12-06T08:40:37.965Z,1011.44
2018-12-06T08:41:37.975Z,1011.47
2018-12-06T08:42:45.484Z,1011.56
2018-12-06T08:43:38.951Z,1011.50
2018-12-06T08:44:37.996Z,1011.58
2018-12-06T08:45:37.939Z,1011.63
2018-12-06T08:46:37.909Z,1011.65
2018-12-06T08:47:37.911Z,1011.67
2018-12-06T08:48:37.999Z,1011.73
2018-12-06T08:49:37.901Z,1011.74
2018-12-06T08:50:40.632Z,1011.71
2018-12-06T08:51:38.573Z,1011.76
2018-12-06T08:52:37.843Z,1011.80
2018-12-06T08:53:37.846Z,1011.82
2018-12-06T08:54:37.847Z,1011.86
2018-12-06T08:55:37.842Z,1011.88
2018-12-06T08:56:38.918Z,1011.86
2018-12-06T08:57:37.795Z,1011.90
2018-12-06T08:58:38.955Z,1011.92
2018-12-06T08:59:37.769Z,1011.90
2018-12-06T09:00:37.764Z,1011.91
2018-12-06T09:01:37.756Z,1011.94
2018-12-06T09:02:37.764Z,1011.99
2018-12-06T09:03:37.859Z,1012.00
2018-12-06T09:04:37.799Z,1011.97
2018-12-06T09:05:37.757Z,1012.04
2018-12-06T09:06:37.704Z,1012.09
2018-12-06T09:07:37.694Z,1012.12
2018-12-06T09:08:37.675Z,1012.16
2018-12-06T09:09:37.656Z,1012.17
2018-12-06T09:10:37.650Z,1012.19
2018-12-06T09:11:38.710Z,1012.24
2018-12-06T09:12:37.613Z,1012.20
2018-12-06T09:13:38.721Z,1012.19
2018-12-06T09:14:37.620Z,1012.19
2018-12-06T09:15:40.085Z,1012.16
2018-12-06T09:16:38.750Z,1012.17
2018-12-06T09:17:37.577Z,1012.13
2018-12-06T09:18:37.623Z,1012.09
2018-12-06T09:19:37.563Z,1012.11
2018-12-06T09:20:37.616Z,1012.08
2018-12-06T09:21:37.896Z,1012.15
2018-12-06T09:22:37.510Z,1012.09
2018-12-06T09:23:38.090Z,1012.14
2018-12-06T09:24:37.521Z,1012.17
2018-12-06T09:25:38.593Z,1012.15
2018-12-06T09:26:37.498Z,1012.15
2018-12-06T09:27:37.469Z,1012.16
2018-12-06T09:28:38.367Z,1012.21
2018-12-06T09:29:37.458Z,1012.20
2018-12-06T09:30:37.447Z,1012.15
2018-12-06T09:31:37.473Z,1012.16
2018-12-06T09:32:37.527Z,1012.16
2018-12-06T09:33:37.406Z,1012.14
2018-12-06T09:34:37.415Z,1012.12
2018-12-06T09:35:37.388Z,1012.12
2018-12-06T09:36:37.586Z,1012.13
2018-12-06T09:37:37.358Z,1012.16
2018-12-06T09:38:37.497Z,1012.15
2018-12-06T09:39:37.339Z,1012.10
2018-12-06T09:40:37.365Z,1012.07
2018-12-06T09:41:37.542Z,1012.11
2018-12-06T09:42:37.355Z,1012.04
2018-12-06T09:43:38.101Z,1012.07
2018-12-06T09:44:37.311Z,1012.02
2018-12-06T09:45:37.356Z,1012.03
2018-12-06T09:46:37.271Z,1012.02
2018-12-06T09:47:37.274Z,1012.05
2018-12-06T09:48:37.299Z,1012.05
2018-12-06T09:49:37.247Z,1012.10
2018-12-06T09:50:37.238Z,1012.10
2018-12-06T09:51:37.329Z,1012.02
2018-12-06T09:52:37.206Z,1012.02
2018-12-06T09:53:37.344Z,1012.01
2018-12-06T09:54:37.192Z,1012.02
2018-12-06T09:55:37.178Z,1011.99
2018-12-06T09:56:37.296Z,1011.97
2018-12-06T09:57:37.183Z,1011.96
2018-12-06T09:58:37.162Z,1011.98
2018-12-06T09:59:37.222Z,1012.00
2018-12-06T10:00:37.128Z,1011.99
2018-12-06T10:01:37.134Z,1011.94
2018-12-06T10:02:37.127Z,1011.94
2018-12-06T10:03:37.268Z,1011.93
2018-12-06T10:04:37.085Z,1011.93
2018-12-06T10:05:37.070Z,1011.93
2018-12-06T10:06:37.063Z,1011.90
2018-12-06T10:07:37.056Z,1011.97
2018-12-06T10:08:37.045Z,1011.98
2018-12-06T10:09:37.134Z,1011.96
2018-12-06T10:10:37.019Z,1011.95
2018-12-06T10:11:37.006Z,1011.94
2018-12-06T10:12:37.069Z,1011.91
2018-12-06T10:13:37.009Z,1011.89
2018-12-06T10:14:36.981Z,1011.89
2018-12-06T10:15:36.985Z,1011.89
2018-12-06T10:16:36.948Z,1011.89
2018-12-06T10:17:36.959Z,1011.86
2018-12-06T10:18:37.041Z,1011.84
2018-12-06T10:19:37.238Z,1011.87
2018-12-06T10:20:36.917Z,1011.83
2018-12-06T10:21:36.925Z,1011.79
2018-12-06T10:22:36.950Z,1011.83
2018-12-06T10:23:36.922Z,1011.77
2018-12-06T10:24:36.955Z,1011.78
2018-12-06T10:25:36.927Z,1011.75
2018-12-06T10:26:37.076Z,1011.76
2018-12-06T10:27:36.836Z,1011.73
2018-12-06T10:28:36.961Z,1011.75
2018-12-06T10:29:36.819Z,1011.76
2018-12-06T10:30:36.859Z,1011.71
2018-12-06T10:31:36.787Z,1011.64
2018-12-06T10:32:36.857Z,1011.69
2018-12-06T10:33:36.903Z,1011.69
2018-12-06T10:34:36.797Z,1011.68
2018-12-06T10:35:36.822Z,1011.72
2018-12-06T10:36:36.736Z,1011.63
2018-12-06T10:37:36.732Z,1011.68
2018-12-06T10:38:36.745Z,1011.63
2018-12-06T10:39:36.874Z,1011.65
2018-12-06T10:40:36.695Z,1011.56
2018-12-06T10:41:36.685Z,1011.56
2018-12-06T10:42:36.807Z,1011.57
2018-12-06T10:43:36.663Z,1011.52
2018-12-06T10:44:36.655Z,1011.51
2018-12-06T10:45:36.846Z,1011.51
2018-12-06T10:46:36.657Z,1011.47
2018-12-06T10:47:36.680Z,1011.45
2018-12-06T10:48:36.672Z,1011.43
2018-12-06T10:49:36.731Z,1011.44
2018-12-06T10:50:36.629Z,1011.42
2018-12-06T10:51:36.735Z,1011.41
2018-12-06T10:52:36.573Z,1011.37
2018-12-06T10:53:36.724Z,1011.38
2018-12-06T10:54:36.538Z,1011.40
2018-12-06T10:55:36.558Z,1011.37
2018-12-06T10:56:36.539Z,1011.33
2018-12-06T10:57:36.696Z,1011.33
2018-12-06T10:58:36.516Z,1011.28
2018-12-06T10:59:36.624Z,1011.31
2018-12-06T11:00:36.487Z,1011.28
2018-12-06T11:01:36.463Z,1011.25
2018-12-06T11:02:37.053Z,1011.26
2018-12-06T11:03:36.448Z,1011.20
2018-12-06T11:04:36.430Z,1011.22
2018-12-06T11:05:36.434Z,1011.17
2018-12-06T11:06:36.421Z,1011.15
2018-12-06T11:07:36.416Z,1011.17
2018-12-06T11:08:36.407Z,1011.09
2018-12-06T11:09:36.526Z,1011.04
2018-12-06T11:10:36.415Z,1011.02
2018-12-06T11:11:36.468Z,1011.00
2018-12-06T11:12:36.360Z,1011.01
2018-12-06T11:13:36.584Z,1011.03
2018-12-06T11:14:36.339Z,1011.02
2018-12-06T11:15:36.327Z,1011.03
2018-12-06T11:16:36.375Z,1010.99
2018-12-06T11:17:36.301Z,1010.97
2018-12-06T11:18:36.461Z,1010.92
2018-12-06T11:19:36.298Z,1010.93
2018-12-06T11:20:36.463Z,1010.97
2018-12-06T11:21:36.259Z,1010.93
2018-12-06T11:22:36.268Z,1010.89
2018-12-06T11:23:36.490Z,1010.88
2018-12-06T11:24:36.229Z,1010.88
2018-12-06T11:25:36.222Z,1010.84
2018-12-06T11:26:36.225Z,1010.79
2018-12-06T11:27:36.200Z,1010.81
2018-12-06T11:28:36.188Z,1010.75
2018-12-06T11:29:39.213Z,1010.76
2018-12-06T11:30:36.203Z,1010.79
2018-12-06T11:31:36.152Z,1010.79
2018-12-06T11:32:36.148Z,1010.82
2018-12-06T11:33:36.145Z,1010.85
2018-12-06T11:34:36.129Z,1010.89
2018-12-06T11:35:36.226Z,1010.85
2018-12-06T11:36:36.097Z,1010.89
2018-12-06T11:37:36.094Z,1010.94
2018-12-06T11:38:36.126Z,1010.97
2018-12-06T11:39:36.073Z,1010.96
2018-12-06T11:40:36.065Z,1010.98
2018-12-06T11:41:42.820Z,1010.99
2018-12-06T11:42:37.033Z,1010.97
2018-12-06T11:43:36.023Z,1010.98
2018-12-06T11:44:36.027Z,1010.97
2018-12-06T11:45:36.006Z,1010.96
2018-12-06T11:46:35.999Z,1010.96
2018-12-06T11:47:35.990Z,1010.98
2018-12-06T11:48:36.090Z,1010.90
2018-12-06T11:49:35.979Z,1010.88
2018-12-06T11:50:35.979Z,1010.86
2018-12-06T11:51:36.013Z,1010.83
2018-12-06T11:52:35.927Z,1010.83
2018-12-06T11:53:36.012Z,1010.80
2018-12-06T11:54:35.912Z,1010.74
2018-12-06T11:55:35.886Z,1010.72
2018-12-06T11:56:35.970Z,1010.72
2018-12-06T11:57:35.909Z,1010.73
2018-12-06T11:58:35.875Z,1010.69
2018-12-06T11:59:36.009Z,1010.69
2018-12-06T12:00:35.853Z,1010.70
2018-12-06T12:01:35.833Z,1010.73
2018-12-06T12:02:35.948Z,1010.69
2018-12-06T12:03:35.833Z,1010.71
2018-12-06T12:04:35.806Z,1010.66
2018-12-06T12:05:35.804Z,1010.66